createdAt,value
2023-02-18T00:01:17.321Z,67.50
2023-02-18T00:03:46.158Z,67.80
2023-02-18T00:06:16.611Z,74.40
2023-02-18T00:08:45.065Z,72.46
2023-02-18T00:11:13.673Z,68.58
2023-02-18T00:13:41.811Z,66.47
2023-02-18T00:16:12.338Z,70.60
2023-02-18T00:18:40.524Z,67.41
2023-02-18T00:21:08.771Z,67.29
2023-02-18T00:23:37.098Z,66.07
2023-02-18T00:26:11.651Z,66.90
2023-02-18T00:28:40.656Z,68.27
2023-02-18T00:31:16.317Z,66.84
2023-02-18T00:33:44.607Z,67.96
2023-02-18T00:36:15.202Z,68.25
2023-02-18T00:38:55.058Z,67.48
2023-02-18T00:41:24.157Z,67.02
2023-02-18T00:43:52.217Z,67.76
2023-02-18T00:46:21.525Z,67.51
2023-02-18T00:48:49.590Z,68.11
2023-02-18T00:51:17.742Z,68.35
2023-02-18T00:53:45.742Z,68.47
2023-02-18T00:56:14.811Z,68.96
2023-02-18T00:58:43.599Z,70.06
2023-02-18T01:01:11.830Z,68.87
2023-02-18T01:03:42.733Z,69.36
2023-02-18T01:06:11.321Z,70.52
2023-02-18T01:08:40.106Z,70.50
2023-02-18T01:11:10.535Z,71.23
2023-02-18T01:13:39.376Z,70.12
2023-02-18T01:16:08.829Z,68.86
2023-02-18T01:18:37.366Z,69.87
2023-02-18T01:21:08.589Z,72.04
2023-02-18T01:23:38.220Z,72.50
2023-02-18T01:26:06.723Z,70.01
2023-02-18T01:28:34.973Z,70.96
2023-02-18T01:31:10.774Z,71.42
2023-02-18T01:33:39.021Z,72.96
2023-02-18T01:36:08.165Z,72.46
2023-02-18T01:38:36.525Z,72.64
2023-02-18T01:41:05.019Z,71.31
2023-02-18T01:43:33.392Z,73.02
2023-02-18T01:46:13.759Z,71.73
2023-02-18T01:48:44.379Z,71.64
2023-02-18T01:51:17.581Z,72.90
2023-02-18T01:54:04.724Z,72.90
2023-02-18T01:56:38.709Z,73.55
2023-02-18T01:59:09.904Z,74.37
2023-02-18T02:01:37.945Z,75.67
2023-02-18T02:04:08.247Z,75.32
2023-02-18T02:06:36.477Z,74.74
2023-02-18T02:09:06.295Z,73.21
2023-02-18T02:11:49.618Z,73.38
2023-02-18T02:14:40.767Z,74.06
2023-02-18T02:17:17.878Z,75.26
2023-02-18T02:19:58.041Z,74.93
2023-02-18T02:22:38.106Z,75.22
2023-02-18T02:25:32.092Z,73.93
2023-02-18T02:28:15.529Z,74.00
2023-02-18T02:31:03.479Z,73.29
2023-02-18T02:33:48.701Z,73.99
2023-02-18T02:36:21.899Z,72.49
2023-02-18T02:39:15.808Z,73.13
2023-02-18T02:41:59.809Z,72.69
2023-02-18T02:44:34.838Z,73.07
2023-02-18T02:47:08.836Z,72.52
2023-02-18T02:49:46.652Z,71.74
2023-02-18T02:52:24.636Z,73.98
2023-02-18T02:54:53.734Z,71.33
2023-02-18T02:57:24.804Z,70.43
2023-02-18T03:00:01.816Z,71.25
2023-02-18T03:02:30.862Z,70.58
2023-02-18T03:05:44.153Z,70.24
2023-02-18T03:08:38.534Z,67.23
2023-02-18T03:11:11.618Z,65.95
2023-02-18T03:14:01.952Z,63.19
2023-02-18T03:16:36.602Z,63.86
2023-02-18T03:19:32.574Z,48.60
2023-02-18T03:22:17.206Z,35.85
2023-02-18T03:24:47.037Z,32.58
2023-02-18T03:27:24.443Z,30.74
2023-02-18T03:30:04.558Z,34.38
2023-02-18T03:32:32.746Z,49.37
2023-02-18T03:35:03.671Z,57.95
2023-02-18T03:37:33.871Z,64.38
2023-02-18T03:40:01.925Z,65.20
2023-02-18T03:42:30.172Z,68.59
2023-02-18T03:44:59.315Z,70.02
2023-02-18T03:47:27.520Z,69.94
2023-02-18T03:49:55.495Z,71.06
2023-02-18T03:52:23.560Z,71.26
2023-02-18T03:54:51.724Z,71.64
2023-02-18T03:57:19.991Z,71.21
2023-02-18T03:59:48.053Z,72.20
2023-02-18T04:02:16.128Z,73.01
2023-02-18T04:04:44.326Z,70.30
2023-02-18T04:07:12.674Z,70.75
2023-02-18T04:09:40.789Z,69.73
2023-02-18T04:12:08.916Z,68.33
2023-02-18T04:14:37.194Z,58.20
2023-02-18T04:17:05.376Z,51.89
2023-02-18T04:19:33.748Z,62.51
2023-02-18T04:22:02.217Z,63.24
2023-02-18T04:24:30.266Z,53.95
2023-02-18T04:26:58.752Z,55.24
2023-02-18T04:29:26.922Z,67.04
2023-02-18T04:31:54.930Z,67.94
2023-02-18T04:34:23.067Z,69.14
2023-02-18T04:36:51.122Z,69.86
2023-02-18T04:39:19.242Z,69.46
2023-02-18T04:41:47.317Z,69.33
2023-02-18T04:44:15.379Z,65.32
2023-02-18T04:46:43.429Z,56.94
2023-02-18T04:49:11.451Z,41.52
2023-02-18T04:51:39.609Z,35.34
2023-02-18T04:54:07.773Z,37.14
2023-02-18T04:56:35.853Z,34.30
2023-02-18T04:59:03.931Z,29.69
2023-02-18T05:01:32.040Z,28.54
2023-02-18T05:04:00.223Z,27.46
2023-02-18T05:06:28.346Z,27.12
2023-02-18T05:08:56.512Z,27.96
2023-02-18T05:11:24.593Z,43.13
2023-02-18T05:13:52.866Z,51.10
2023-02-18T05:16:21.142Z,54.49
2023-02-18T05:18:49.098Z,54.20
2023-02-18T05:21:17.048Z,56.84
2023-02-18T05:23:45.149Z,51.48
2023-02-18T05:26:13.335Z,35.15
2023-02-18T05:28:41.398Z,32.88
2023-02-18T05:31:09.521Z,31.46
2023-02-18T05:33:38.166Z,30.37
2023-02-18T05:36:07.051Z,31.50
2023-02-18T05:38:35.558Z,32.88
2023-02-18T05:41:03.604Z,33.56
2023-02-18T05:43:51.841Z,31.70
2023-02-18T05:46:20.146Z,30.02
2023-02-18T05:48:48.298Z,24.81
2023-02-18T05:51:16.565Z,24.05
2023-02-18T05:53:44.741Z,21.17
2023-02-18T05:56:12.823Z,22.32
2023-02-18T05:58:40.745Z,20.32
2023-02-18T06:01:08.864Z,17.49
2023-02-18T06:03:37.237Z,16.37
2023-02-18T06:06:06.072Z,15.73
2023-02-18T06:08:34.406Z,15.32
2023-02-18T06:11:03.704Z,13.14
2023-02-18T06:13:32.016Z,12.55
2023-02-18T06:16:00.243Z,11.58
2023-02-18T06:18:28.138Z,11.00
2023-02-18T06:20:56.217Z,10.97
2023-02-18T06:23:24.249Z,10.78
2023-02-18T06:25:52.458Z,10.62
2023-02-18T06:28:20.496Z,10.94
2023-02-18T06:30:48.593Z,10.93
2023-02-18T06:33:16.806Z,9.97
2023-02-18T06:36:02.536Z,10.22
2023-02-18T06:38:30.818Z,9.90
2023-02-18T06:40:58.999Z,9.74
2023-02-18T06:43:27.107Z,9.16
2023-02-18T06:45:55.661Z,9.11
2023-02-18T06:48:24.133Z,8.97
2023-02-18T06:50:52.201Z,8.90
2023-02-18T06:53:20.346Z,8.80
2023-02-18T06:55:48.654Z,8.71
2023-02-18T06:58:16.872Z,8.48
2023-02-18T07:00:45.265Z,8.95
2023-02-18T07:03:14.347Z,8.46
2023-02-18T07:05:44.803Z,8.74
2023-02-18T07:08:12.928Z,8.46
2023-02-18T07:10:40.922Z,8.27
2023-02-18T07:13:08.949Z,8.63
2023-02-18T07:15:37.085Z,8.35
2023-02-18T07:18:05.087Z,8.30
2023-02-18T07:20:33.240Z,8.35
2023-02-18T07:23:01.347Z,8.44
2023-02-18T07:25:29.539Z,8.08
2023-02-18T07:27:57.608Z,7.95
2023-02-18T07:30:26.118Z,7.71
2023-02-18T07:32:54.605Z,7.82
2023-02-18T07:35:24.933Z,8.21
2023-02-18T07:37:53.000Z,7.82
2023-02-18T07:40:22.149Z,7.13
2023-02-18T07:42:50.637Z,7.53
2023-02-18T07:45:20.616Z,7.31
2023-02-18T07:47:48.762Z,7.25
2023-02-18T07:50:16.788Z,7.30
2023-02-18T07:52:44.899Z,7.21
2023-02-18T07:55:12.930Z,7.20
2023-02-18T07:57:57.533Z,7.17
2023-02-18T08:00:25.656Z,7.49
2023-02-18T08:02:53.695Z,7.58
2023-02-18T08:05:21.941Z,7.80
2023-02-18T08:07:50.197Z,7.85
2023-02-18T08:10:18.360Z,7.59
2023-02-18T08:12:46.428Z,8.37
2023-02-18T08:15:14.710Z,8.37
2023-02-18T08:17:42.986Z,7.97
2023-02-18T08:20:11.416Z,8.18
2023-02-18T08:22:39.674Z,8.02
2023-02-18T08:25:09.167Z,8.47
2023-02-18T08:27:39.975Z,8.24
2023-02-18T08:30:08.666Z,8.16
2023-02-18T08:32:36.704Z,8.57
2023-02-18T08:35:05.275Z,8.46
2023-02-18T08:37:52.278Z,8.12
2023-02-18T08:40:21.600Z,8.67
2023-02-18T08:42:49.638Z,8.67
2023-02-18T08:45:18.674Z,9.11
2023-02-18T08:48:15.992Z,9.11
2023-02-18T08:50:35.422Z,9.45
2023-02-18T08:53:03.672Z,9.13
2023-02-18T08:55:32.762Z,9.14
2023-02-18T08:58:01.412Z,9.74
2023-02-18T09:00:29.506Z,9.47
2023-02-18T09:02:57.543Z,10.00
2023-02-18T09:05:25.582Z,9.78
2023-02-18T09:07:53.650Z,9.94
2023-02-18T09:10:21.856Z,9.84
2023-02-18T09:12:49.897Z,10.18
2023-02-18T09:15:18.048Z,10.23
2023-02-18T09:17:46.414Z,10.24
2023-02-18T09:20:14.574Z,10.28
2023-02-18T09:22:42.665Z,10.16
2023-02-18T09:25:10.931Z,10.23
2023-02-18T09:27:38.948Z,9.82
2023-02-18T09:30:07.866Z,9.36
2023-02-18T09:32:36.115Z,9.62
2023-02-18T09:35:05.673Z,8.99
2023-02-18T09:37:33.798Z,8.48
2023-02-18T09:40:01.921Z,8.05
2023-02-18T09:42:32.658Z,8.49
2023-02-18T09:45:03.004Z,8.53
2023-02-18T09:47:40.390Z,8.24
2023-02-18T09:50:11.587Z,8.21
2023-02-18T09:52:39.971Z,7.75
2023-02-18T09:55:21.909Z,8.28
2023-02-18T09:57:57.712Z,8.16
2023-02-18T10:00:48.605Z,8.09
2023-02-18T10:03:21.755Z,7.95
2023-02-18T10:06:13.015Z,8.16
2023-02-18T10:08:43.739Z,8.60
2023-02-18T10:11:30.398Z,8.91
2023-02-18T10:14:01.117Z,9.28
2023-02-18T10:16:29.376Z,9.96
2023-02-18T10:18:58.861Z,9.99
2023-02-18T10:21:36.211Z,10.08
2023-02-18T10:24:06.879Z,10.36
2023-02-18T10:26:37.421Z,10.65
2023-02-18T10:29:09.909Z,10.12
2023-02-18T10:31:38.471Z,10.44
2023-02-18T10:34:09.341Z,9.93
2023-02-18T10:36:42.343Z,9.54
2023-02-18T10:39:32.909Z,8.98
2023-02-18T10:42:37.504Z,9.12
2023-02-18T10:45:36.691Z,8.96
2023-02-18T10:48:14.689Z,8.72
2023-02-18T10:50:44.233Z,8.57
2023-02-18T10:53:21.509Z,8.60
2023-02-18T10:55:50.101Z,8.32
2023-02-18T10:58:30.244Z,8.52
2023-02-18T11:00:59.075Z,7.86
2023-02-18T11:03:48.178Z,7.73
2023-02-18T11:06:28.695Z,7.53
2023-02-18T11:08:56.863Z,7.89
2023-02-18T11:11:33.311Z,7.92
2023-02-18T11:14:02.396Z,7.91
2023-02-18T11:16:41.465Z,8.10
2023-02-18T11:19:36.860Z,7.97
2023-02-18T11:22:17.358Z,8.39
2023-02-18T11:24:48.743Z,8.71
2023-02-18T11:27:32.657Z,8.35
2023-02-18T11:30:03.573Z,8.67
2023-02-18T11:32:31.761Z,8.92
2023-02-18T11:34:59.778Z,8.69
2023-02-18T11:37:27.931Z,8.09
2023-02-18T11:39:56.053Z,8.71
2023-02-18T11:42:25.370Z,8.28
2023-02-18T11:44:59.851Z,8.53
2023-02-18T11:47:32.614Z,8.82
2023-02-18T11:50:00.732Z,8.66
2023-02-18T11:52:36.950Z,8.99
2023-02-18T11:55:17.664Z,8.80
2023-02-18T11:57:52.498Z,7.89
2023-02-18T12:00:36.461Z,7.81
2023-02-18T12:03:27.300Z,7.72
2023-02-18T12:05:56.396Z,8.03
2023-02-18T12:08:26.054Z,7.67
2023-02-18T12:10:55.825Z,7.04
2023-02-18T12:13:27.733Z,7.23
2023-02-18T12:16:11.488Z,7.10
2023-02-18T12:18:58.234Z,7.24
2023-02-18T12:21:55.875Z,7.28
2023-02-18T12:24:29.037Z,6.93
2023-02-18T12:27:18.508Z,6.63
2023-02-18T12:30:08.544Z,6.60
2023-02-18T12:32:48.880Z,7.00
2023-02-18T12:35:23.173Z,6.99
2023-02-18T12:38:06.815Z,6.61
2023-02-18T12:40:44.169Z,6.95
2023-02-18T12:43:31.217Z,7.32
2023-02-18T12:46:16.576Z,6.92
2023-02-18T12:49:06.371Z,6.83
2023-02-18T12:51:56.667Z,6.63
2023-02-18T12:54:30.424Z,6.50
2023-02-18T12:57:07.764Z,6.73
2023-02-18T12:59:57.648Z,6.55
2023-02-18T13:02:34.944Z,5.97
2023-02-18T13:05:26.675Z,5.99
2023-02-18T13:08:07.320Z,6.15
2023-02-18T13:10:57.633Z,5.82
2023-02-18T13:13:35.923Z,5.52
2023-02-18T13:16:12.407Z,5.44
2023-02-18T13:18:47.944Z,5.23
2023-02-18T13:21:16.340Z,5.32
2023-02-18T13:23:56.410Z,5.60
2023-02-18T13:26:24.455Z,5.33
2023-02-18T13:29:10.958Z,4.92
2023-02-18T13:31:46.617Z,4.80
2023-02-18T13:34:23.382Z,4.79
2023-02-18T13:37:22.482Z,4.59
2023-02-18T13:39:55.071Z,4.20
2023-02-18T13:42:32.033Z,4.15
2023-02-18T13:45:00.112Z,3.85
2023-02-18T13:47:45.355Z,3.85
2023-02-18T13:50:22.813Z,3.43
2023-02-18T13:52:51.627Z,3.32
2023-02-18T13:55:26.236Z,3.41
2023-02-18T13:57:55.286Z,3.47
2023-02-18T14:00:34.584Z,3.42
2023-02-18T14:03:19.321Z,2.80
2023-02-18T14:05:47.359Z,3.33
2023-02-18T14:08:16.487Z,3.28
2023-02-18T14:11:07.085Z,3.64
2023-02-18T14:13:40.831Z,3.73
2023-02-18T14:16:09.740Z,3.43
2023-02-18T14:18:40.687Z,3.62
2023-02-18T14:21:11.616Z,3.69
2023-02-18T14:23:51.887Z,3.62
2023-02-18T14:26:36.877Z,3.79
2023-02-18T14:29:30.786Z,3.57
2023-02-18T14:32:05.051Z,4.64
2023-02-18T14:34:33.414Z,4.30
2023-02-18T14:37:20.922Z,4.61
2023-02-18T14:40:08.066Z,4.02
2023-02-18T14:42:51.005Z,4.10
2023-02-18T14:45:33.660Z,4.60
2023-02-18T14:48:13.256Z,4.49
2023-02-18T14:50:43.616Z,4.57
2023-02-18T14:53:18.657Z,4.20
2023-02-18T14:55:49.196Z,4.29
2023-02-18T14:58:30.590Z,4.87
2023-02-18T15:00:59.050Z,4.64
2023-02-18T15:03:27.272Z,4.94
2023-02-18T15:05:55.350Z,4.87
2023-02-18T15:08:24.547Z,4.32
2023-02-18T15:10:54.308Z,4.23
2023-02-18T15:13:23.457Z,4.23
2023-02-18T15:15:53.847Z,3.97
2023-02-18T15:18:38.051Z,3.98
2023-02-18T15:21:08.490Z,3.72
2023-02-18T15:23:37.966Z,3.47
2023-02-18T15:26:06.299Z,3.76
2023-02-18T15:28:35.395Z,3.81
2023-02-18T15:31:04.095Z,3.59
2023-02-18T15:33:32.538Z,3.66
2023-02-18T15:36:04.860Z,3.79
2023-02-18T15:38:33.292Z,3.95
2023-02-18T15:41:01.574Z,3.99
2023-02-18T15:43:30.185Z,4.05
2023-02-18T15:45:58.395Z,4.21
2023-02-18T15:48:33.491Z,4.11
2023-02-18T15:51:16.250Z,4.22
2023-02-18T15:53:47.376Z,4.20
2023-02-18T15:56:22.318Z,3.93
2023-02-18T15:58:50.913Z,3.97
2023-02-18T16:01:29.240Z,4.01
2023-02-18T16:03:57.507Z,3.83
2023-02-18T16:06:28.202Z,3.19
2023-02-18T16:09:30.264Z,3.08
2023-02-18T16:11:59.877Z,3.84
2023-02-18T16:14:37.042Z,3.82
2023-02-18T16:17:15.009Z,3.26
2023-02-18T16:20:02.826Z,3.20
2023-02-18T16:22:33.320Z,3.08
2023-02-18T16:25:02.959Z,2.78
2023-02-18T16:27:33.080Z,2.84
2023-02-18T16:30:17.769Z,3.06
2023-02-18T16:32:46.080Z,3.35
2023-02-18T16:35:14.337Z,3.83
2023-02-18T16:37:42.773Z,4.07
2023-02-18T16:40:31.037Z,4.10
2023-02-18T16:43:19.697Z,4.16
2023-02-18T16:45:50.213Z,4.10
2023-02-18T16:48:26.668Z,3.93
2023-02-18T16:50:54.788Z,4.21
2023-02-18T16:53:22.866Z,3.95
2023-02-18T16:55:51.203Z,4.24
2023-02-18T16:58:19.426Z,3.99
2023-02-18T17:00:47.576Z,3.82
2023-02-18T17:03:16.193Z,4.21
2023-02-18T17:05:44.315Z,4.37
2023-02-18T17:08:24.001Z,4.58
2023-02-18T17:10:56.936Z,4.54
2023-02-18T17:13:28.865Z,4.29
2023-02-18T17:15:57.815Z,4.38
2023-02-18T17:18:26.189Z,4.34
2023-02-18T17:20:54.562Z,4.46
2023-02-18T17:23:23.314Z,5.15
2023-02-18T17:25:52.393Z,5.81
2023-02-18T17:28:20.607Z,5.39
2023-02-18T17:30:56.689Z,6.33
2023-02-18T17:33:25.332Z,4.90
2023-02-18T17:35:53.390Z,5.51
2023-02-18T17:38:21.398Z,6.38
2023-02-18T17:40:50.794Z,7.50
2023-02-18T17:43:19.533Z,7.19
2023-02-18T17:45:55.277Z,6.80
2023-02-18T17:48:23.981Z,6.32
2023-02-18T17:50:52.450Z,5.34
2023-02-18T17:53:20.494Z,5.14
2023-02-18T17:55:48.677Z,5.81
2023-02-18T17:58:16.873Z,5.83
2023-02-18T18:00:48.064Z,4.58
2023-02-18T18:03:16.359Z,3.92
2023-02-18T18:05:48.698Z,4.07
2023-02-18T18:08:17.284Z,4.14
2023-02-18T18:10:49.887Z,4.58
2023-02-18T18:13:32.386Z,4.62
2023-02-18T18:16:00.655Z,4.43
2023-02-18T18:18:28.719Z,4.58
2023-02-18T18:20:58.857Z,5.06
2023-02-18T18:23:29.346Z,4.95
2023-02-18T18:25:57.883Z,5.19
2023-02-18T18:28:27.001Z,4.93
2023-02-18T18:30:55.881Z,4.25
2023-02-18T18:33:31.573Z,4.16
2023-02-18T18:35:59.981Z,3.87
2023-02-18T18:38:28.473Z,3.87
2023-02-18T18:40:56.921Z,3.35
2023-02-18T18:43:33.049Z,3.04
2023-02-18T18:46:01.479Z,2.76
2023-02-18T18:48:29.655Z,2.73
2023-02-18T18:50:57.716Z,2.36
2023-02-18T18:53:28.410Z,2.57
2023-02-18T18:55:58.344Z,2.70
2023-02-18T18:58:26.672Z,2.97
2023-02-18T19:00:57.133Z,3.33
2023-02-18T19:03:26.173Z,2.91
2023-02-18T19:05:54.749Z,3.04
2023-02-18T19:08:23.225Z,3.88
2023-02-18T19:10:56.346Z,4.02
2023-02-18T19:13:29.272Z,2.85
2023-02-18T19:16:03.203Z,3.98
2023-02-18T19:18:33.847Z,3.41
2023-02-18T19:21:02.236Z,3.78
2023-02-18T19:23:30.963Z,3.94
2023-02-18T19:25:59.410Z,4.64
2023-02-18T19:28:30.595Z,4.96
2023-02-18T19:31:01.328Z,3.85
2023-02-18T19:33:29.492Z,4.41
2023-02-18T19:35:57.547Z,4.85
2023-02-18T19:38:25.553Z,4.87
2023-02-18T19:40:54.145Z,6.67
2023-02-18T19:43:22.301Z,6.73
2023-02-18T19:45:50.330Z,6.70
2023-02-18T19:48:18.593Z,7.29
2023-02-18T19:50:46.573Z,5.84
2023-02-18T19:53:14.621Z,5.21
2023-02-18T19:55:42.714Z,3.60
2023-02-18T19:58:10.726Z,3.63
2023-02-18T20:00:40.616Z,3.19
2023-02-18T20:03:08.691Z,3.93
2023-02-18T20:05:38.442Z,3.10
2023-02-18T20:08:06.596Z,2.89
2023-02-18T20:10:34.960Z,3.04
2023-02-18T20:13:05.315Z,3.18
2023-02-18T20:15:33.552Z,3.44
2023-02-18T20:18:01.867Z,3.89
2023-02-18T20:20:30.117Z,3.56
2023-02-18T20:22:58.276Z,3.69
2023-02-18T20:25:27.939Z,3.43
2023-02-18T20:28:01.242Z,3.83
2023-02-18T20:30:29.905Z,3.42
2023-02-18T20:32:58.116Z,3.43
2023-02-18T20:35:26.368Z,3.18
2023-02-18T20:37:54.558Z,3.83
2023-02-18T20:40:22.833Z,3.98
2023-02-18T20:42:50.952Z,4.49
2023-02-18T20:45:19.101Z,4.46
2023-02-18T20:47:47.236Z,4.05
2023-02-18T20:50:16.095Z,3.89
2023-02-18T20:52:44.442Z,4.15
2023-02-18T20:55:12.468Z,4.71
2023-02-18T20:57:40.525Z,4.25
2023-02-18T21:00:09.426Z,3.97
2023-02-18T21:02:38.825Z,4.01
2023-02-18T21:05:07.266Z,4.05
2023-02-18T21:07:35.420Z,3.98
2023-02-18T21:10:04.501Z,4.09
2023-02-18T21:12:32.654Z,4.09
2023-02-18T21:15:00.592Z,3.91
2023-02-18T21:17:28.782Z,3.95
2023-02-18T21:19:56.841Z,3.96
2023-02-18T21:22:24.978Z,3.94
2023-02-18T21:24:52.984Z,3.73
2023-02-18T21:27:21.090Z,3.94
2023-02-18T21:29:49.208Z,4.51
2023-02-18T21:32:17.487Z,4.53
2023-02-18T21:34:45.725Z,4.58
2023-02-18T21:37:13.857Z,4.55
2023-02-18T21:39:41.850Z,5.09
2023-02-18T21:42:10.738Z,5.80
2023-02-18T21:44:42.910Z,6.92
2023-02-18T21:47:11.387Z,7.76
2023-02-18T21:49:39.402Z,8.63
2023-02-18T21:52:10.223Z,9.10
2023-02-18T21:54:40.077Z,9.49
2023-02-18T21:57:11.459Z,9.40
2023-02-18T21:59:39.742Z,9.50
2023-02-18T22:02:08.621Z,10.29
2023-02-18T22:04:36.912Z,9.32
2023-02-18T22:07:05.182Z,9.32
2023-02-18T22:09:33.452Z,9.21
2023-02-18T22:12:01.605Z,8.56
2023-02-18T22:14:29.716Z,8.93
2023-02-18T22:16:57.899Z,9.25
2023-02-18T22:19:26.316Z,8.86
2023-02-18T22:21:54.431Z,9.32
2023-02-18T22:24:22.503Z,9.14
2023-02-18T22:26:50.587Z,8.90
2023-02-18T22:29:19.509Z,8.35
2023-02-18T22:31:47.873Z,8.32
2023-02-18T22:34:16.631Z,8.07
2023-02-18T22:36:44.868Z,7.63
2023-02-18T22:39:13.244Z,7.70
2023-02-18T22:41:41.795Z,7.10
2023-02-18T22:44:12.764Z,7.16
2023-02-18T22:46:41.013Z,7.01
2023-02-18T22:49:09.223Z,6.71
2023-02-18T22:51:41.677Z,6.68
2023-02-18T22:54:14.694Z,6.65
2023-02-18T22:56:43.138Z,7.06
2023-02-18T22:59:12.127Z,6.88
2023-02-18T23:01:42.023Z,7.41
2023-02-18T23:04:11.888Z,7.75
2023-02-18T23:06:41.222Z,7.76
2023-02-18T23:09:11.208Z,7.81
2023-02-18T23:11:39.486Z,7.73
2023-02-18T23:14:19.484Z,7.64
2023-02-18T23:17:12.470Z,7.27
2023-02-18T23:19:47.991Z,7.46
2023-02-18T23:22:34.596Z,7.50
2023-02-18T23:25:02.749Z,7.32
2023-02-18T23:27:30.922Z,7.46
2023-02-18T23:29:59.087Z,7.02
2023-02-18T23:32:29.080Z,7.34
2023-02-18T23:34:57.162Z,7.24
2023-02-18T23:37:45.273Z,7.51
2023-02-18T23:40:14.865Z,7.64
2023-02-18T23:42:42.999Z,7.77
2023-02-18T23:45:11.080Z,8.33
2023-02-18T23:47:39.169Z,9.13
2023-02-18T23:50:07.238Z,9.99
2023-02-18T23:52:35.223Z,10.43
2023-02-18T23:55:03.405Z,11.50
2023-02-18T23:57:32.134Z,11.74
